sensor_id;sensor_type;location;lat;lon;timestamp;temperature;humidity
32139;DHT22;18644;48.700;9.210;2023-08-07T00:00:59;15.30;62.60
32139;DHT22;18644;48.700;9.210;2023-08-07T00:03:26;15.30;62.60
32139;DHT22;18644;48.700;9.210;2023-08-07T00:05:54;15.30;62.60
32139;DHT22;18644;48.700;9.210;2023-08-07T00:08:21;15.30;62.50
32139;DHT22;18644;48.700;9.210;2023-08-07T00:10:49;15.30;62.50
32139;DHT22;18644;48.700;9.210;2023-08-07T00:13:16;15.30;62.40
32139;DHT22;18644;48.700;9.210;2023-08-07T00:15:44;15.30;62.30
32139;DHT22;18644;48.700;9.210;2023-08-07T00:18:11;15.20;62.30
32139;DHT22;18644;48.700;9.210;2023-08-07T00:20:37;15.20;62.30
32139;DHT22;18644;48.700;9.210;2023-08-07T00:23:04;15.20;62.20
32139;DHT22;18644;48.700;9.210;2023-08-07T00:25:31;15.30;62.30
32139;DHT22;18644;48.700;9.210;2023-08-07T00:27:59;15.20;62.30
32139;DHT22;18644;48.700;9.210;2023-08-07T00:30:26;15.20;62.40
32139;DHT22;18644;48.700;9.210;2023-08-07T00:32:53;15.20;62.30
32139;DHT22;18644;48.700;9.210;2023-08-07T00:35:20;15.20;62.40
32139;DHT22;18644;48.700;9.210;2023-08-07T00:37:47;15.20;62.40
32139;DHT22;18644;48.700;9.210;2023-08-07T00:40:14;15.20;62.40
32139;DHT22;18644;48.700;9.210;2023-08-07T00:42:41;15.20;62.30
32139;DHT22;18644;48.700;9.210;2023-08-07T00:45:10;15.10;62.10
32139;DHT22;18644;48.700;9.210;2023-08-07T00:47:37;15.10;62.20
32139;DHT22;18644;48.700;9.210;2023-08-07T00:50:05;15.10;62.10
32139;DHT22;18644;48.700;9.210;2023-08-07T00:52:32;15.10;62.10
32139;DHT22;18644;48.700;9.210;2023-08-07T00:55:00;15.10;62.10
32139;DHT22;18644;48.700;9.210;2023-08-07T00:57:27;15.10;62.10
32139;DHT22;18644;48.700;9.210;2023-08-07T00:59:54;15.10;62.00
32139;DHT22;18644;48.700;9.210;2023-08-07T01:02:22;15.00;62.00
32139;DHT22;18644;48.700;9.210;2023-08-07T01:04:50;15.00;62.00
32139;DHT22;18644;48.700;9.210;2023-08-07T01:07:17;15.00;62.00
32139;DHT22;18644;48.700;9.210;2023-08-07T01:09:44;15.00;62.10
32139;DHT22;18644;48.700;9.210;2023-08-07T01:12:16;15.00;62.00
32139;DHT22;18644;48.700;9.210;2023-08-07T01:14:51;15.00;62.20
32139;DHT22;18644;48.700;9.210;2023-08-07T01:17:21;14.90;62.20
32139;DHT22;18644;48.700;9.210;2023-08-07T01:19:50;14.90;62.10
32139;DHT22;18644;48.700;9.210;2023-08-07T01:22:20;14.90;62.20
32139;DHT22;18644;48.700;9.210;2023-08-07T01:24:48;15.00;62.20
32139;DHT22;18644;48.700;9.210;2023-08-07T01:27:26;14.90;62.20
32139;DHT22;18644;48.700;9.210;2023-08-07T01:30:02;14.90;62.20
32139;DHT22;18644;48.700;9.210;2023-08-07T01:32:42;14.90;62.20
32139;DHT22;18644;48.700;9.210;2023-08-07T01:35:19;14.90;62.30
32139;DHT22;18644;48.700;9.210;2023-08-07T01:37:54;15.00;62.40
32139;DHT22;18644;48.700;9.210;2023-08-07T01:40:22;14.90;62.30
32139;DHT22;18644;48.700;9.210;2023-08-07T01:42:50;15.00;62.30
32139;DHT22;18644;48.700;9.210;2023-08-07T01:45:23;15.00;62.40
32139;DHT22;18644;48.700;9.210;2023-08-07T01:47:50;14.90;62.40
32139;DHT22;18644;48.700;9.210;2023-08-07T01:50:18;14.90;62.40
32139;DHT22;18644;48.700;9.210;2023-08-07T01:52:45;14.90;62.30
32139;DHT22;18644;48.700;9.210;2023-08-07T01:55:14;14.90;62.30
32139;DHT22;18644;48.700;9.210;2023-08-07T01:57:41;15.00;62.40
32139;DHT22;18644;48.700;9.210;2023-08-07T02:00:09;14.90;62.30
32139;DHT22;18644;48.700;9.210;2023-08-07T02:02:37;15.00;62.30
32139;DHT22;18644;48.700;9.210;2023-08-07T02:05:05;14.90;62.30
32139;DHT22;18644;48.700;9.210;2023-08-07T02:07:32;15.00;62.40
32139;DHT22;18644;48.700;9.210;2023-08-07T02:09:59;14.90;62.20
32139;DHT22;18644;48.700;9.210;2023-08-07T02:12:27;14.90;62.10
32139;DHT22;18644;48.700;9.210;2023-08-07T02:14:57;14.90;62.10
32139;DHT22;18644;48.700;9.210;2023-08-07T02:17:25;14.90;62.10
32139;DHT22;18644;48.700;9.210;2023-08-07T02:19:52;14.90;62.20
32139;DHT22;18644;48.700;9.210;2023-08-07T02:22:19;14.90;62.20
32139;DHT22;18644;48.700;9.210;2023-08-07T02:24:46;14.90;62.20
32139;DHT22;18644;48.700;9.210;2023-08-07T02:27:13;14.90;62.20
32139;DHT22;18644;48.700;9.210;2023-08-07T02:29:41;15.00;62.30
32139;DHT22;18644;48.700;9.210;2023-08-07T02:32:08;15.00;62.30
32139;DHT22;18644;48.700;9.210;2023-08-07T02:34:35;15.00;62.30
32139;DHT22;18644;48.700;9.210;2023-08-07T02:37:02;15.00;62.20
32139;DHT22;18644;48.700;9.210;2023-08-07T02:39:29;15.00;62.20
32139;DHT22;18644;48.700;9.210;2023-08-07T02:41:56;15.00;62.10
32139;DHT22;18644;48.700;9.210;2023-08-07T02:44:23;15.00;62.00
32139;DHT22;18644;48.700;9.210;2023-08-07T02:46:51;15.00;61.90
32139;DHT22;18644;48.700;9.210;2023-08-07T02:49:18;15.00;61.90
32139;DHT22;18644;48.700;9.210;2023-08-07T02:51:45;15.00;61.80
32139;DHT22;18644;48.700;9.210;2023-08-07T02:54:12;15.00;61.70
32139;DHT22;18644;48.700;9.210;2023-08-07T02:56:38;15.00;61.50
32139;DHT22;18644;48.700;9.210;2023-08-07T02:59:05;15.00;61.40
32139;DHT22;18644;48.700;9.210;2023-08-07T03:01:32;15.00;61.40
32139;DHT22;18644;48.700;9.210;2023-08-07T03:04:00;15.00;61.30
32139;DHT22;18644;48.700;9.210;2023-08-07T03:06:27;15.00;61.20
32139;DHT22;18644;48.700;9.210;2023-08-07T03:08:54;15.00;61.10
32139;DHT22;18644;48.700;9.210;2023-08-07T03:11:21;15.00;60.90
32139;DHT22;18644;48.700;9.210;2023-08-07T03:13:48;15.00;60.80
32139;DHT22;18644;48.700;9.210;2023-08-07T03:16:15;15.00;60.70
32139;DHT22;18644;48.700;9.210;2023-08-07T03:18:42;15.00;60.60
32139;DHT22;18644;48.700;9.210;2023-08-07T03:21:10;15.00;60.60
32139;DHT22;18644;48.700;9.210;2023-08-07T03:23:37;14.90;60.50
32139;DHT22;18644;48.700;9.210;2023-08-07T03:26:05;14.90;60.40
32139;DHT22;18644;48.700;9.210;2023-08-07T03:28:33;14.90;60.40
32139;DHT22;18644;48.700;9.210;2023-08-07T03:31:01;14.90;60.40
32139;DHT22;18644;48.700;9.210;2023-08-07T03:33:28;14.90;60.30
32139;DHT22;18644;48.700;9.210;2023-08-07T03:35:55;14.80;60.30
32139;DHT22;18644;48.700;9.210;2023-08-07T03:38:23;14.80;60.20
32139;DHT22;18644;48.700;9.210;2023-08-07T03:40:51;14.80;60.30
32139;DHT22;18644;48.700;9.210;2023-08-07T03:43:17;14.80;60.30
32139;DHT22;18644;48.700;9.210;2023-08-07T03:45:44;14.80;60.30
32139;DHT22;18644;48.700;9.210;2023-08-07T03:48:11;14.70;60.30
32139;DHT22;18644;48.700;9.210;2023-08-07T03:50:38;14.70;60.30
32139;DHT22;18644;48.700;9.210;2023-08-07T03:53:05;14.70;60.20
32139;DHT22;18644;48.700;9.210;2023-08-07T03:55:34;14.70;60.30
32139;DHT22;18644;48.700;9.210;2023-08-07T03:58:01;14.70;60.30
32139;DHT22;18644;48.700;9.210;2023-08-07T04:00:28;14.70;60.30
32139;DHT22;18644;48.700;9.210;2023-08-07T04:02:55;14.70;60.30
32139;DHT22;18644;48.700;9.210;2023-08-07T04:05:22;14.70;60.30
32139;DHT22;18644;48.700;9.210;2023-08-07T04:07:49;14.70;60.40
32139;DHT22;18644;48.700;9.210;2023-08-07T04:10:16;14.70;60.50
32139;DHT22;18644;48.700;9.210;2023-08-07T04:12:44;14.60;60.40
32139;DHT22;18644;48.700;9.210;2023-08-07T04:15:11;14.60;60.40
32139;DHT22;18644;48.700;9.210;2023-08-07T04:17:38;14.60;60.40
32139;DHT22;18644;48.700;9.210;2023-08-07T04:20:06;14.60;60.40
32139;DHT22;18644;48.700;9.210;2023-08-07T04:22:34;14.60;60.50
32139;DHT22;18644;48.700;9.210;2023-08-07T04:25:01;14.60;60.50
32139;DHT22;18644;48.700;9.210;2023-08-07T04:27:29;14.60;60.50
32139;DHT22;18644;48.700;9.210;2023-08-07T04:29:57;14.50;60.40
32139;DHT22;18644;48.700;9.210;2023-08-07T04:32:24;14.50;60.40
32139;DHT22;18644;48.700;9.210;2023-08-07T04:34:51;14.50;60.50
32139;DHT22;18644;48.700;9.210;2023-08-07T04:37:18;14.60;60.60
32139;DHT22;18644;48.700;9.210;2023-08-07T04:39:45;14.50;60.60
32139;DHT22;18644;48.700;9.210;2023-08-07T04:42:12;14.50;60.60
32139;DHT22;18644;48.700;9.210;2023-08-07T04:44:38;14.50;60.70
32139;DHT22;18644;48.700;9.210;2023-08-07T04:47:07;14.50;60.70
32139;DHT22;18644;48.700;9.210;2023-08-07T04:49:34;14.50;60.80
32139;DHT22;18644;48.700;9.210;2023-08-07T04:52:01;14.50;60.80
32139;DHT22;18644;48.700;9.210;2023-08-07T04:54:27;14.50;60.90
32139;DHT22;18644;48.700;9.210;2023-08-07T04:56:54;14.50;61.00
32139;DHT22;18644;48.700;9.210;2023-08-07T04:59:21;14.50;61.10
32139;DHT22;18644;48.700;9.210;2023-08-07T05:01:48;14.50;61.20
32139;DHT22;18644;48.700;9.210;2023-08-07T05:04:16;14.50;61.20
32139;DHT22;18644;48.700;9.210;2023-08-07T05:06:43;14.50;61.20
32139;DHT22;18644;48.700;9.210;2023-08-07T05:09:10;14.50;61.30
32139;DHT22;18644;48.700;9.210;2023-08-07T05:11:38;14.60;61.50
32139;DHT22;18644;48.700;9.210;2023-08-07T05:14:04;14.60;61.40
32139;DHT22;18644;48.700;9.210;2023-08-07T05:16:31;14.60;61.60
32139;DHT22;18644;48.700;9.210;2023-08-07T05:18:58;14.60;61.60
32139;DHT22;18644;48.700;9.210;2023-08-07T05:21:26;14.60;61.70
32139;DHT22;18644;48.700;9.210;2023-08-07T05:23:53;14.60;61.80
32139;DHT22;18644;48.700;9.210;2023-08-07T05:26:21;14.70;61.80
32139;DHT22;18644;48.700;9.210;2023-08-07T05:28:48;14.70;61.80
32139;DHT22;18644;48.700;9.210;2023-08-07T05:31:14;14.70;61.90
32139;DHT22;18644;48.700;9.210;2023-08-07T05:33:41;14.70;62.00
32139;DHT22;18644;48.700;9.210;2023-08-07T05:36:08;14.80;62.10
32139;DHT22;18644;48.700;9.210;2023-08-07T05:38:36;14.80;62.10
32139;DHT22;18644;48.700;9.210;2023-08-07T05:41:03;14.90;62.00
32139;DHT22;18644;48.700;9.210;2023-08-07T05:43:30;14.90;61.90
32139;DHT22;18644;48.700;9.210;2023-08-07T05:45:57;15.00;62.10
32139;DHT22;18644;48.700;9.210;2023-08-07T05:48:24;15.00;62.80
32139;DHT22;18644;48.700;9.210;2023-08-07T05:50:51;15.00;62.00
32139;DHT22;18644;48.700;9.210;2023-08-07T05:53:19;15.10;62.00
32139;DHT22;18644;48.700;9.210;2023-08-07T05:55:47;15.10;61.80
32139;DHT22;18644;48.700;9.210;2023-08-07T05:58:14;15.20;61.70
32139;DHT22;18644;48.700;9.210;2023-08-07T06:00:41;15.30;61.70
32139;DHT22;18644;48.700;9.210;2023-08-07T06:03:07;15.30;61.60
32139;DHT22;18644;48.700;9.210;2023-08-07T06:05:34;15.40;61.70
32139;DHT22;18644;48.700;9.210;2023-08-07T06:08:01;15.40;61.70
32139;DHT22;18644;48.700;9.210;2023-08-07T06:10:28;15.50;61.80
32139;DHT22;18644;48.700;9.210;2023-08-07T06:12:56;15.50;61.60
32139;DHT22;18644;48.700;9.210;2023-08-07T06:15:23;15.60;61.40
32139;DHT22;18644;48.700;9.210;2023-08-07T06:17:50;15.60;61.20
32139;DHT22;18644;48.700;9.210;2023-08-07T06:20:17;15.70;61.30
32139;DHT22;18644;48.700;9.210;2023-08-07T06:22:45;15.70;61.00
32139;DHT22;18644;48.700;9.210;2023-08-07T06:25:12;15.80;60.80
32139;DHT22;18644;48.700;9.210;2023-08-07T06:27:38;15.80;60.70
32139;DHT22;18644;48.700;9.210;2023-08-07T06:30:08;15.80;60.50
32139;DHT22;18644;48.700;9.210;2023-08-07T06:32:35;15.90;60.50
32139;DHT22;18644;48.700;9.210;2023-08-07T06:35:03;15.90;60.40
32139;DHT22;18644;48.700;9.210;2023-08-07T06:37:31;16.00;60.20
32139;DHT22;18644;48.700;9.210;2023-08-07T06:39:57;16.00;60.70
32139;DHT22;18644;48.700;9.210;2023-08-07T06:42:24;16.10;59.70
32139;DHT22;18644;48.700;9.210;2023-08-07T06:44:51;16.10;59.60
32139;DHT22;18644;48.700;9.210;2023-08-07T06:47:20;16.10;59.60
32139;DHT22;18644;48.700;9.210;2023-08-07T06:49:46;16.10;59.50
32139;DHT22;18644;48.700;9.210;2023-08-07T06:52:13;16.20;59.50
32139;DHT22;18644;48.700;9.210;2023-08-07T06:54:40;16.20;59.40
32139;DHT22;18644;48.700;9.210;2023-08-07T06:57:07;16.20;59.40
32139;DHT22;18644;48.700;9.210;2023-08-07T06:59:34;16.30;59.40
32139;DHT22;18644;48.700;9.210;2023-08-07T07:02:01;16.30;59.40
32139;DHT22;18644;48.700;9.210;2023-08-07T07:04:29;16.40;59.90
32139;DHT22;18644;48.700;9.210;2023-08-07T07:06:56;16.50;59.50
32139;DHT22;18644;48.700;9.210;2023-08-07T07:09:23;16.50;59.60
32139;DHT22;18644;48.700;9.210;2023-08-07T07:11:50;16.60;59.50
32139;DHT22;18644;48.700;9.210;2023-08-07T07:14:17;16.60;59.60
32139;DHT22;18644;48.700;9.210;2023-08-07T07:16:44;16.70;59.80
32139;DHT22;18644;48.700;9.210;2023-08-07T07:19:11;16.80;59.70
32139;DHT22;18644;48.700;9.210;2023-08-07T07:21:39;16.90;59.60
32139;DHT22;18644;48.700;9.210;2023-08-07T07:24:07;17.00;59.40
32139;DHT22;18644;48.700;9.210;2023-08-07T07:26:34;17.00;59.00
32139;DHT22;18644;48.700;9.210;2023-08-07T07:29:01;17.10;58.60
32139;DHT22;18644;48.700;9.210;2023-08-07T07:31:28;17.20;58.50
32139;DHT22;18644;48.700;9.210;2023-08-07T07:33:54;17.20;58.50
32139;DHT22;18644;48.700;9.210;2023-08-07T07:36:21;17.30;58.40
32139;DHT22;18644;48.700;9.210;2023-08-07T07:38:49;17.30;58.20
32139;DHT22;18644;48.700;9.210;2023-08-07T07:41:16;17.40;58.10
32139;DHT22;18644;48.700;9.210;2023-08-07T07:43:44;17.40;57.90
32139;DHT22;18644;48.700;9.210;2023-08-07T07:46:11;17.50;57.90
32139;DHT22;18644;48.700;9.210;2023-08-07T07:48:37;17.50;58.00
32139;DHT22;18644;48.700;9.210;2023-08-07T07:51:04;17.60;58.00
32139;DHT22;18644;48.700;9.210;2023-08-07T07:53:31;17.70;58.30
32139;DHT22;18644;48.700;9.210;2023-08-07T07:55:59;17.80;57.80
32139;DHT22;18644;48.700;9.210;2023-08-07T07:58:26;17.90;57.60
32139;DHT22;18644;48.700;9.210;2023-08-07T08:00:53;18.00;57.30
32139;DHT22;18644;48.700;9.210;2023-08-07T08:03:20;18.00;56.80
32139;DHT22;18644;48.700;9.210;2023-08-07T08:05:49;18.10;56.50
32139;DHT22;18644;48.700;9.210;2023-08-07T08:08:17;18.20;56.10
32139;DHT22;18644;48.700;9.210;2023-08-07T08:10:44;18.30;56.00
32139;DHT22;18644;48.700;9.210;2023-08-07T08:13:14;18.30;56.00
32139;DHT22;18644;48.700;9.210;2023-08-07T08:15:41;18.40;56.00
32139;DHT22;18644;48.700;9.210;2023-08-07T08:18:08;18.40;55.80
32139;DHT22;18644;48.700;9.210;2023-08-07T08:20:35;18.50;55.60
32139;DHT22;18644;48.700;9.210;2023-08-07T08:23:02;18.60;55.30
32139;DHT22;18644;48.700;9.210;2023-08-07T08:25:29;18.60;55.00
32139;DHT22;18644;48.700;9.210;2023-08-07T08:27:56;18.70;54.80
32139;DHT22;18644;48.700;9.210;2023-08-07T08:30:24;18.70;54.40
32139;DHT22;18644;48.700;9.210;2023-08-07T08:32:51;18.70;54.10
32139;DHT22;18644;48.700;9.210;2023-08-07T08:35:18;18.70;53.90
32139;DHT22;18644;48.700;9.210;2023-08-07T08:37:45;18.80;53.70
32139;DHT22;18644;48.700;9.210;2023-08-07T08:40:13;18.80;53.10
32139;DHT22;18644;48.700;9.210;2023-08-07T08:42:43;18.80;53.30
32139;DHT22;18644;48.700;9.210;2023-08-07T08:45:13;18.90;53.40
32139;DHT22;18644;48.700;9.210;2023-08-07T08:47:43;19.00;53.30
32139;DHT22;18644;48.700;9.210;2023-08-07T08:50:13;19.10;53.10
32139;DHT22;18644;48.700;9.210;2023-08-07T08:52:42;19.10;53.20
32139;DHT22;18644;48.700;9.210;2023-08-07T08:55:11;19.30;52.90
32139;DHT22;18644;48.700;9.210;2023-08-07T08:57:39;19.40;51.90
32139;DHT22;18644;48.700;9.210;2023-08-07T09:00:07;19.40;51.20
32139;DHT22;18644;48.700;9.210;2023-08-07T09:02:45;19.50;51.30
32139;DHT22;18644;48.700;9.210;2023-08-07T09:05:14;19.50;51.40
32139;DHT22;18644;48.700;9.210;2023-08-07T09:07:42;19.60;50.70
32139;DHT22;18644;48.700;9.210;2023-08-07T09:10:10;19.60;50.90
32139;DHT22;18644;48.700;9.210;2023-08-07T09:12:40;19.70;50.50
32139;DHT22;18644;48.700;9.210;2023-08-07T09:15:09;19.70;50.50
32139;DHT22;18644;48.700;9.210;2023-08-07T09:17:40;19.70;50.70
32139;DHT22;18644;48.700;9.210;2023-08-07T09:20:10;19.70;50.60
32139;DHT22;18644;48.700;9.210;2023-08-07T09:22:38;19.80;50.20
32139;DHT22;18644;48.700;9.210;2023-08-07T09:25:07;19.90;50.40
32139;DHT22;18644;48.700;9.210;2023-08-07T09:27:36;19.90;49.90
32139;DHT22;18644;48.700;9.210;2023-08-07T09:30:05;20.00;49.30
32139;DHT22;18644;48.700;9.210;2023-08-07T09:32:33;20.00;49.50
32139;DHT22;18644;48.700;9.210;2023-08-07T09:35:02;20.10;49.40
32139;DHT22;18644;48.700;9.210;2023-08-07T09:37:32;20.10;49.20
32139;DHT22;18644;48.700;9.210;2023-08-07T09:40:02;20.20;49.60
32139;DHT22;18644;48.700;9.210;2023-08-07T09:42:31;20.30;49.50
32139;DHT22;18644;48.700;9.210;2023-08-07T09:44:59;20.30;49.40
32139;DHT22;18644;48.700;9.210;2023-08-07T09:47:27;20.30;49.20
32139;DHT22;18644;48.700;9.210;2023-08-07T09:49:55;20.40;49.40
32139;DHT22;18644;48.700;9.210;2023-08-07T09:52:24;20.50;49.40
32139;DHT22;18644;48.700;9.210;2023-08-07T09:54:56;20.50;49.10
32139;DHT22;18644;48.700;9.210;2023-08-07T09:57:24;20.50;48.90
32139;DHT22;18644;48.700;9.210;2023-08-07T09:59:52;20.60;48.70
32139;DHT22;18644;48.700;9.210;2023-08-07T10:02:19;20.60;48.40
32139;DHT22;18644;48.700;9.210;2023-08-07T10:04:47;20.60;48.10
32139;DHT22;18644;48.700;9.210;2023-08-07T10:07:15;20.60;48.10
32139;DHT22;18644;48.700;9.210;2023-08-07T10:09:42;20.60;48.00
32139;DHT22;18644;48.700;9.210;2023-08-07T10:12:11;20.70;47.90
32139;DHT22;18644;48.700;9.210;2023-08-07T10:14:40;20.70;48.00
32139;DHT22;18644;48.700;9.210;2023-08-07T10:17:08;20.70;47.50
32139;DHT22;18644;48.700;9.210;2023-08-07T10:19:35;20.70;47.60
32139;DHT22;18644;48.700;9.210;2023-08-07T10:22:05;20.70;47.50
32139;DHT22;18644;48.700;9.210;2023-08-07T10:24:34;20.70;47.50
32139;DHT22;18644;48.700;9.210;2023-08-07T10:27:02;20.80;47.40
32139;DHT22;18644;48.700;9.210;2023-08-07T10:29:32;20.80;47.70
32139;DHT22;18644;48.700;9.210;2023-08-07T10:31:59;20.90;48.00
32139;DHT22;18644;48.700;9.210;2023-08-07T10:34:28;21.00;47.90
32139;DHT22;18644;48.700;9.210;2023-08-07T10:36:56;21.00;47.80
32139;DHT22;18644;48.700;9.210;2023-08-07T10:39:22;21.20;47.30
32139;DHT22;18644;48.700;9.210;2023-08-07T10:41:53;21.20;46.90
32139;DHT22;18644;48.700;9.210;2023-08-07T10:44:21;21.20;46.90
32139;DHT22;18644;48.700;9.210;2023-08-07T10:46:52;21.20;46.90
32139;DHT22;18644;48.700;9.210;2023-08-07T10:49:32;21.20;46.40
32139;DHT22;18644;48.700;9.210;2023-08-07T10:52:02;21.30;46.20
32139;DHT22;18644;48.700;9.210;2023-08-07T10:54:30;21.30;46.70
32139;DHT22;18644;48.700;9.210;2023-08-07T10:57:10;21.30;46.90
32139;DHT22;18644;48.700;9.210;2023-08-07T10:59:38;21.30;46.40
32139;DHT22;18644;48.700;9.210;2023-08-07T11:02:07;21.30;46.00
32139;DHT22;18644;48.700;9.210;2023-08-07T11:04:38;21.30;46.00
32139;DHT22;18644;48.700;9.210;2023-08-07T11:07:06;21.30;46.20
32139;DHT22;18644;48.700;9.210;2023-08-07T11:09:33;21.30;46.00
32139;DHT22;18644;48.700;9.210;2023-08-07T11:12:01;21.20;45.50
32139;DHT22;18644;48.700;9.210;2023-08-07T11:14:28;21.20;45.90
32139;DHT22;18644;48.700;9.210;2023-08-07T11:16:54;21.20;46.40
32139;DHT22;18644;48.700;9.210;2023-08-07T11:19:23;21.20;46.90
32139;DHT22;18644;48.700;9.210;2023-08-07T11:21:51;21.30;46.70
32139;DHT22;18644;48.700;9.210;2023-08-07T11:24:19;21.40;46.80
32139;DHT22;18644;48.700;9.210;2023-08-07T11:26:47;21.50;47.50
32139;DHT22;18644;48.700;9.210;2023-08-07T11:29:16;21.60;45.60
32139;DHT22;18644;48.700;9.210;2023-08-07T11:31:44;21.60;45.40
32139;DHT22;18644;48.700;9.210;2023-08-07T11:34:12;21.50;45.10
32139;DHT22;18644;48.700;9.210;2023-08-07T11:36:44;21.50;44.80
32139;DHT22;18644;48.700;9.210;2023-08-07T11:39:11;21.40;44.70
32139;DHT22;18644;48.700;9.210;2023-08-07T11:41:38;21.40;45.00
32139;DHT22;18644;48.700;9.210;2023-08-07T11:44:08;21.30;45.10
32139;DHT22;18644;48.700;9.210;2023-08-07T11:46:35;21.20;45.30
32139;DHT22;18644;48.700;9.210;2023-08-07T11:49:02;21.10;45.30
32139;DHT22;18644;48.700;9.210;2023-08-07T11:51:30;21.00;45.20
32139;DHT22;18644;48.700;9.210;2023-08-07T11:53:59;20.90;45.10
32139;DHT22;18644;48.700;9.210;2023-08-07T11:56:25;20.90;44.90
32139;DHT22;18644;48.700;9.210;2023-08-07T11:58:52;20.70;45.00
32139;DHT22;18644;48.700;9.210;2023-08-07T12:01:21;20.60;45.10
32139;DHT22;18644;48.700;9.210;2023-08-07T12:03:53;20.60;45.30
32139;DHT22;18644;48.700;9.210;2023-08-07T12:06:21;20.40;45.20
32139;DHT22;18644;48.700;9.210;2023-08-07T12:08:49;20.40;45.30
32139;DHT22;18644;48.700;9.210;2023-08-07T12:11:19;20.30;45.50
32139;DHT22;18644;48.700;9.210;2023-08-07T12:13:47;20.20;45.90
32139;DHT22;18644;48.700;9.210;2023-08-07T12:16:16;20.10;46.40
32139;DHT22;18644;48.700;9.210;2023-08-07T12:18:44;20.00;46.90
32139;DHT22;18644;48.700;9.210;2023-08-07T12:21:15;19.90;47.20
32139;DHT22;18644;48.700;9.210;2023-08-07T12:23:44;19.80;47.50
32139;DHT22;18644;48.700;9.210;2023-08-07T12:26:13;19.80;47.90
32139;DHT22;18644;48.700;9.210;2023-08-07T12:28:41;19.70;47.90
32139;DHT22;18644;48.700;9.210;2023-08-07T12:31:08;19.70;48.10
32139;DHT22;18644;48.700;9.210;2023-08-07T12:33:35;19.60;48.00
32139;DHT22;18644;48.700;9.210;2023-08-07T12:36:02;19.60;48.20
32139;DHT22;18644;48.700;9.210;2023-08-07T12:38:29;19.50;48.40
32139;DHT22;18644;48.700;9.210;2023-08-07T12:40:56;19.50;48.60
32139;DHT22;18644;48.700;9.210;2023-08-07T12:43:23;19.40;48.90
32139;DHT22;18644;48.700;9.210;2023-08-07T12:45:52;19.40;49.20
32139;DHT22;18644;48.700;9.210;2023-08-07T12:48:19;19.50;49.40
32139;DHT22;18644;48.700;9.210;2023-08-07T12:50:46;19.50;49.60
32139;DHT22;18644;48.700;9.210;2023-08-07T12:53:13;19.60;49.90
32139;DHT22;18644;48.700;9.210;2023-08-07T12:55:40;19.60;50.30
32139;DHT22;18644;48.700;9.210;2023-08-07T12:58:07;19.70;50.40
32139;DHT22;18644;48.700;9.210;2023-08-07T13:00:34;19.90;50.40
32139;DHT22;18644;48.700;9.210;2023-08-07T13:03:02;20.00;50.20
32139;DHT22;18644;48.700;9.210;2023-08-07T13:05:29;20.10;50.00
32139;DHT22;18644;48.700;9.210;2023-08-07T13:07:56;20.20;49.60
32139;DHT22;18644;48.700;9.210;2023-08-07T13:10:24;20.30;49.40
32139;DHT22;18644;48.700;9.210;2023-08-07T13:12:53;20.40;49.10
32139;DHT22;18644;48.700;9.210;2023-08-07T13:15:20;20.40;49.10
32139;DHT22;18644;48.700;9.210;2023-08-07T13:17:47;20.40;49.20
32139;DHT22;18644;48.700;9.210;2023-08-07T13:20:15;20.50;49.20
32139;DHT22;18644;48.700;9.210;2023-08-07T13:22:43;20.60;49.50
32139;DHT22;18644;48.700;9.210;2023-08-07T13:25:11;20.60;49.50
32139;DHT22;18644;48.700;9.210;2023-08-07T13:27:39;20.70;49.40
32139;DHT22;18644;48.700;9.210;2023-08-07T13:30:08;20.80;49.50
32139;DHT22;18644;48.700;9.210;2023-08-07T13:32:35;20.80;49.60
32139;DHT22;18644;48.700;9.210;2023-08-07T13:35:03;20.90;49.50
32139;DHT22;18644;48.700;9.210;2023-08-07T13:37:31;20.90;49.30
32139;DHT22;18644;48.700;9.210;2023-08-07T13:39:59;21.00;49.10
32139;DHT22;18644;48.700;9.210;2023-08-07T13:42:26;21.00;49.00
32139;DHT22;18644;48.700;9.210;2023-08-07T13:44:54;21.00;48.70
32139;DHT22;18644;48.700;9.210;2023-08-07T13:47:21;21.00;48.30
32139;DHT22;18644;48.700;9.210;2023-08-07T13:49:51;21.00;48.40
32139;DHT22;18644;48.700;9.210;2023-08-07T13:52:19;21.00;48.50
32139;DHT22;18644;48.700;9.210;2023-08-07T13:54:47;21.00;48.30
32139;DHT22;18644;48.700;9.210;2023-08-07T13:57:14;21.00;48.10
32139;DHT22;18644;48.700;9.210;2023-08-07T13:59:41;21.00;48.40
32139;DHT22;18644;48.700;9.210;2023-08-07T14:02:09;21.10;48.80
32139;DHT22;18644;48.700;9.210;2023-08-07T14:04:36;21.10;48.80
32139;DHT22;18644;48.700;9.210;2023-08-07T14:07:03;21.30;49.20
32139;DHT22;18644;48.700;9.210;2023-08-07T14:09:30;21.40;49.80
32139;DHT22;18644;48.700;9.210;2023-08-07T14:11:59;21.70;49.80
32139;DHT22;18644;48.700;9.210;2023-08-07T14:14:25;21.90;49.20
32139;DHT22;18644;48.700;9.210;2023-08-07T14:16:52;22.20;48.60
32139;DHT22;18644;48.700;9.210;2023-08-07T14:19:22;22.40;47.60
32139;DHT22;18644;48.700;9.210;2023-08-07T14:21:48;22.50;47.00
32139;DHT22;18644;48.700;9.210;2023-08-07T14:24:15;22.70;47.30
32139;DHT22;18644;48.700;9.210;2023-08-07T14:26:42;22.90;46.90
32139;DHT22;18644;48.700;9.210;2023-08-07T14:29:12;23.00;46.80
32139;DHT22;18644;48.700;9.210;2023-08-07T14:31:39;23.20;46.30
32139;DHT22;18644;48.700;9.210;2023-08-07T14:34:06;23.40;46.10
32139;DHT22;18644;48.700;9.210;2023-08-07T14:36:33;23.60;45.40
32139;DHT22;18644;48.700;9.210;2023-08-07T14:39:00;23.70;44.80
32139;DHT22;18644;48.700;9.210;2023-08-07T14:41:27;23.80;44.10
32139;DHT22;18644;48.700;9.210;2023-08-07T14:43:54;23.80;44.20
32139;DHT22;18644;48.700;9.210;2023-08-07T14:46:22;23.70;43.30
32139;DHT22;18644;48.700;9.210;2023-08-07T14:48:49;23.60;43.20
32139;DHT22;18644;48.700;9.210;2023-08-07T14:51:16;23.60;43.30
32139;DHT22;18644;48.700;9.210;2023-08-07T14:53:43;23.50;42.60
32139;DHT22;18644;48.700;9.210;2023-08-07T14:56:10;23.40;42.30
32139;DHT22;18644;48.700;9.210;2023-08-07T14:58:37;23.30;42.30
32139;DHT22;18644;48.700;9.210;2023-08-07T15:01:03;23.20;42.40
32139;DHT22;18644;48.700;9.210;2023-08-07T15:03:32;23.00;42.50
32139;DHT22;18644;48.700;9.210;2023-08-07T15:05:59;22.90;42.60
32139;DHT22;18644;48.700;9.210;2023-08-07T15:08:25;22.80;42.60
32139;DHT22;18644;48.700;9.210;2023-08-07T15:10:52;22.60;42.50
32139;DHT22;18644;48.700;9.210;2023-08-07T15:13:19;22.50;42.50
32139;DHT22;18644;48.700;9.210;2023-08-07T15:15:46;22.40;42.80
32139;DHT22;18644;48.700;9.210;2023-08-07T15:18:13;22.30;43.50
32139;DHT22;18644;48.700;9.210;2023-08-07T15:20:41;22.30;43.80
32139;DHT22;18644;48.700;9.210;2023-08-07T15:23:08;22.30;43.90
32139;DHT22;18644;48.700;9.210;2023-08-07T15:25:37;22.40;43.90
32139;DHT22;18644;48.700;9.210;2023-08-07T15:28:05;22.50;43.60
32139;DHT22;18644;48.700;9.210;2023-08-07T15:30:32;22.50;43.40
32139;DHT22;18644;48.700;9.210;2023-08-07T15:32:59;22.50;43.30